Time;durP1;ratioP1;P1;durP2;ratioP2;P2;SDS_P1;SDS_P2;PMS_P1;PMS_P2;Temp;Humidity;BMP_temperature;BMP_pressure;BME280_temperature;BME280_humidity;BME280_pressure;Samples;Min_cycle;Max_cycle;Signal;HPM_P1;HPM_P2
2022/12/29 00:01:16;;;;;;;3.03;2.55;;;;;;;;;;5149829;27;20511;-73
2022/12/29 00:03:45;;;;;;;3.80;2.72;;;;;;;;;;5168340;27;20053;-70
2022/12/29 00:06:12;;;;;;;2.40;2.20;;;;;;;;;;5167838;27;20047;-70
2022/12/29 00:08:41;;;;;;;3.70;2.40;;;;;;;;;;5167321;27;20074;-71
2022/12/29 00:11:12;;;;;;;3.30;2.28;;;;;;;;;;5165169;27;20485;-71
2022/12/29 00:16:24;;;;;;;2.20;2.00;;;;;;;;;;5166924;27;20050;-71
2022/12/29 00:18:50;;;;;;;2.83;1.77;;;;;;;;;;5167650;27;20618;-73
2022/12/29 00:35:09;;;;;;;4.30;2.03;;;;;;;;;;5146668;27;20055;-73
2022/12/29 00:45:56;;;;;;;3.53;2.10;;;;;;;;;;5168034;27;20441;-72
2022/12/29 00:51:07;;;;;;;2.53;1.67;;;;;;;;;;5164752;27;20077;-72
2022/12/29 00:53:34;;;;;;;1.70;1.60;;;;;;;;;;5167007;27;20515;-73
2022/12/29 00:56:00;;;;;;;2.10;1.50;;;;;;;;;;5167547;27;20061;-74
2022/12/29 00:58:28;;;;;;;2.75;1.83;;;;;;;;;;5166637;27;20826;-73
2022/12/29 01:01:04;;;;;;;2.72;1.80;;;;;;;;;;5164544;27;20076;-73
2022/12/29 01:03:30;;;;;;;1.65;1.50;;;;;;;;;;5166670;27;20558;-74
2022/12/29 01:05:59;;;;;;;2.60;1.85;;;;;;;;;;5166098;27;20518;-73
2022/12/29 01:08:27;;;;;;;2.17;1.45;;;;;;;;;;5166715;27;20546;-72
2022/12/29 01:11:00;;;;;;;1.50;1.30;;;;;;;;;;5160033;27;20073;-72
2022/12/29 01:13:27;;;;;;;1.73;1.40;;;;;;;;;;5165120;27;20137;-74
2022/12/29 01:15:53;;;;;;;2.65;1.50;;;;;;;;;;5166425;27;20129;-72
2022/12/29 01:18:20;;;;;;;1.63;1.33;;;;;;;;;;5147896;27;20569;-72
2022/12/29 01:20:47;;;;;;;2.97;1.33;;;;;;;;;;5167454;27;20062;-72
2022/12/29 01:23:13;;;;;;;2.50;1.88;;;;;;;;;;5166339;27;20051;-72
2022/12/29 01:25:40;;;;;;;4.50;1.60;;;;;;;;;;5167785;27;20055;-74
2022/12/29 01:28:08;;;;;;;3.42;1.65;;;;;;;;;;5165748;27;20055;-73
2022/12/29 01:30:34;;;;;;;2.83;1.80;;;;;;;;;;5165421;27;20078;-74
2022/12/29 01:33:01;;;;;;;3.35;2.05;;;;;;;;;;5165147;27;20503;-74
2022/12/29 01:35:27;;;;;;;1.58;1.40;;;;;;;;;;5166061;27;20047;-74
2022/12/29 01:37:54;;;;;;;1.52;1.13;;;;;;;;;;5161940;27;20582;-74
2022/12/29 01:40:20;;;;;;;2.13;1.50;;;;;;;;;;5146160;27;20047;-75
2022/12/29 01:42:46;;;;;;;4.07;1.90;;;;;;;;;;5165269;27;20063;-77
2022/12/29 01:45:14;;;;;;;2.08;1.63;;;;;;;;;;5165037;27;20123;-75
2022/12/29 01:47:43;;;;;;;2.53;1.77;;;;;;;;;;5165153;27;20557;-70
2022/12/29 01:50:09;;;;;;;1.92;1.73;;;;;;;;;;5145883;27;20054;-74
2022/12/29 01:52:38;;;;;;;2.58;1.90;;;;;;;;;;5151989;27;20062;-76
2022/12/29 01:55:05;;;;;;;3.10;2.10;;;;;;;;;;5160397;27;20080;-73
2022/12/29 01:57:34;;;;;;;2.45;1.98;;;;;;;;;;5164996;27;20066;-75
2022/12/29 02:00:07;;;;;;;3.33;2.08;;;;;;;;;;5145360;27;20050;-77
2022/12/29 02:02:33;;;;;;;3.67;1.95;;;;;;;;;;5145409;27;20531;-74
2022/12/29 02:05:04;;;;;;;1.73;1.63;;;;;;;;;;5145771;27;20439;-73
2022/12/29 02:07:31;;;;;;;2.67;1.70;;;;;;;;;;5152428;27;20055;-74
2022/12/29 02:09:57;;;;;;;3.15;1.67;;;;;;;;;;5145300;27;20090;-72
2022/12/29 02:12:24;;;;;;;2.28;1.77;;;;;;;;;;5144763;27;20051;-72
2022/12/29 02:14:53;;;;;;;1.35;1.25;;;;;;;;;;5152680;27;20054;-74
2022/12/29 02:17:38;;;;;;;2.00;1.80;;;;;;;;;;5165678;27;20483;-76
2022/12/29 02:20:23;;;;;;;3.10;1.93;;;;;;;;;;5155683;27;20050;-74
2022/12/29 02:23:08;;;;;;;4.53;1.63;;;;;;;;;;5165210;27;20062;-73
2022/12/29 02:25:51;;;;;;;3.63;1.55;;;;;;;;;;5164728;27;20047;-71
2022/12/29 02:28:23;;;;;;;5.43;2.00;;;;;;;;;;5158085;27;20505;-76
2022/12/29 02:30:59;;;;;;;4.72;1.90;;;;;;;;;;5144970;27;20051;-75
2022/12/29 02:33:29;;;;;;;3.60;1.65;;;;;;;;;;5136512;27;20047;-75
2022/12/29 02:35:55;;;;;;;2.22;1.75;;;;;;;;;;5154583;27;20053;-76
2022/12/29 02:38:24;;;;;;;1.88;1.48;;;;;;;;;;5157783;27;20075;-72
2022/12/29 02:41:11;;;;;;;2.92;1.67;;;;;;;;;;5150623;27;20122;-73
2022/12/29 02:43:42;;;;;;;3.50;1.67;;;;;;;;;;5147434;27;20051;-75
2022/12/29 02:46:17;;;;;;;5.47;1.23;;;;;;;;;;5166256;27;20051;-74
2022/12/29 02:48:44;;;;;;;;;;;;;;;;;;5156121;27;20043;-75
2022/12/29 02:51:10;;;;;;;0.95;0.90;;;;;;;;;;5160027;27;46661;-74
2022/12/29 02:56:22;;;;;;;2.55;1.17;;;;;;;;;;5166002;27;20424;-73
2022/12/29 02:58:48;;;;;;;1.90;1.15;;;;;;;;;;5169902;27;20074;-75
2022/12/29 03:01:23;;;;;;;3.70;1.58;;;;;;;;;;5168906;27;20554;-74
2022/12/29 03:04:10;;;;;;;2.65;0.60;;;;;;;;;;5168324;27;20058;-73
2022/12/29 03:06:39;;;;;;;3.00;0.70;;;;;;;;;;5169160;27;20129;-72
2022/12/29 03:09:14;;;;;;;3.55;0.85;;;;;;;;;;5168625;27;20054;-72
2022/12/29 03:12:08;;;;;;;1.75;0.98;;;;;;;;;;5166917;27;20568;-74
2022/12/29 03:17:45;;;;;;;4.05;1.10;;;;;;;;;;5163624;27;20515;-76
2022/12/29 03:20:14;;;;;;;0.98;0.88;;;;;;;;;;5166542;27;20563;-75
2022/12/29 03:22:42;;;;;;;0.60;0.60;;;;;;;;;;5168585;27;20050;-71
2022/12/29 03:25:35;;;;;;;1.67;0.70;;;;;;;;;;5168766;27;20050;-73
2022/12/29 03:28:05;;;;;;;3.20;0.70;;;;;;;;;;5162020;27;20094;-73
2022/12/29 03:30:32;;;;;;;3.40;0.82;;;;;;;;;;5168737;27;20082;-74
2022/12/29 03:33:00;;;;;;;0.60;0.57;;;;;;;;;;5167888;27;20051;-74
2022/12/29 03:35:29;;;;;;;2.08;0.88;;;;;;;;;;5168651;27;20043;-73
2022/12/29 03:37:59;;;;;;;1.65;0.90;;;;;;;;;;5167267;27;20076;-75
2022/12/29 03:40:27;;;;;;;2.15;0.90;;;;;;;;;;5168288;27;20047;-71
2022/12/29 03:42:54;;;;;;;1.48;0.85;;;;;;;;;;5165784;27;20141;-71
2022/12/29 03:45:20;;;;;;;1.45;0.70;;;;;;;;;;5168059;27;20050;-73
2022/12/29 03:47:47;;;;;;;3.20;0.95;;;;;;;;;;5168493;27;20045;-71
2022/12/29 03:50:14;;;;;;;6.45;1.27;;;;;;;;;;5166437;27;20090;-72
2022/12/29 03:52:40;;;;;;;6.47;1.55;;;;;;;;;;5167891;27;20047;-72
2022/12/29 03:55:07;;;;;;;3.25;0.90;;;;;;;;;;5168126;27;20043;-74
2022/12/29 03:57:33;;;;;;;1.70;0.85;;;;;;;;;;5167596;27;20055;-75
2022/12/29 03:59:59;;;;;;;2.15;0.85;;;;;;;;;;5162568;27;20456;-72
2022/12/29 04:02:26;;;;;;;1.45;0.80;;;;;;;;;;5168182;27;20537;-72
2022/12/29 04:04:53;;;;;;;2.13;1.00;;;;;;;;;;5165867;27;20054;-73
2022/12/29 04:07:19;;;;;;;3.25;1.20;;;;;;;;;;5166607;27;20043;-72
2022/12/29 04:09:45;;;;;;;5.88;1.20;;;;;;;;;;5151626;27;20071;-71
2022/12/29 04:12:12;;;;;;;2.45;1.10;;;;;;;;;;5158919;27;20140;-71
2022/12/29 04:14:39;;;;;;;2.10;1.20;;;;;;;;;;5166266;27;20050;-71
2022/12/29 04:17:06;;;;;;;3.67;1.30;;;;;;;;;;5167205;27;20051;-70
2022/12/29 04:19:32;;;;;;;5.05;1.35;;;;;;;;;;5159048;27;20095;-71
2022/12/29 04:21:59;;;;;;;2.28;1.20;;;;;;;;;;5166954;27;20049;-71
2022/12/29 04:24:25;;;;;;;3.00;1.38;;;;;;;;;;5166182;27;20043;-71
2022/12/29 04:26:51;;;;;;;2.17;1.35;;;;;;;;;;5168065;27;20043;-71
2022/12/29 04:29:18;;;;;;;5.75;1.67;;;;;;;;;;5167200;27;20133;-71
2022/12/29 04:31:44;;;;;;;8.70;1.20;;;;;;;;;;5166641;27;20043;-71
2022/12/29 04:34:10;;;;;;;3.67;1.30;;;;;;;;;;5167153;27;20049;-70
2022/12/29 04:36:37;;;;;;;4.38;1.15;;;;;;;;;;5167435;27;20050;-70
2022/12/29 04:39:05;;;;;;;4.07;1.30;;;;;;;;;;5165075;27;20447;-70
2022/12/29 04:41:31;;;;;;;7.63;1.20;;;;;;;;;;5167121;27;20139;-72
2022/12/29 04:43:57;;;;;;;5.63;0.98;;;;;;;;;;5166901;27;20050;-72
2022/12/29 04:46:24;;;;;;;4.25;0.98;;;;;;;;;;5167405;27;20056;-71
2022/12/29 04:48:50;;;;;;;8.98;1.20;;;;;;;;;;5162400;27;20050;-72
2022/12/29 04:51:16;;;;;;;3.75;1.00;;;;;;;;;;5146162;27;20051;-72
2022/12/29 04:53:43;;;;;;;4.85;1.00;;;;;;;;;;5162361;27;20046;-69
2022/12/29 04:56:10;;;;;;;4.28;1.00;;;;;;;;;;5149551;27;20049;-70
2022/12/29 04:58:36;;;;;;;4.72;1.20;;;;;;;;;;5165612;27;20051;-72
2022/12/29 05:01:02;;;;;;;4.90;1.10;;;;;;;;;;5146332;27;20052;-72
2022/12/29 05:03:29;;;;;;;6.10;1.05;;;;;;;;;;5163027;27;20050;-72
2022/12/29 05:05:55;;;;;;;8.43;1.60;;;;;;;;;;5145728;27;20418;-72
2022/12/29 05:08:22;;;;;;;6.22;1.23;;;;;;;;;;5155201;27;20511;-70
2022/12/29 05:10:53;;;;;;;6.47;1.27;;;;;;;;;;5165812;27;20526;-71
2022/12/29 05:13:20;;;;;;;9.38;1.60;;;;;;;;;;5166469;27;20096;-72
2022/12/29 05:15:50;;;;;;;5.60;1.00;;;;;;;;;;5166392;27;20069;-73
2022/12/29 05:18:16;;;;;;;8.43;1.20;;;;;;;;;;5165842;27;20100;-71
2022/12/29 05:20:43;;;;;;;6.10;1.77;;;;;;;;;;5165199;27;20059;-72
2022/12/29 05:23:10;;;;;;;10.88;1.80;;;;;;;;;;5166315;27;20111;-73
2022/12/29 05:25:37;;;;;;;8.20;1.83;;;;;;;;;;5165658;27;20530;-72
2022/12/29 05:28:03;;;;;;;9.73;1.50;;;;;;;;;;5166072;27;21044;-71
2022/12/29 05:30:29;;;;;;;8.25;1.65;;;;;;;;;;5165269;27;20058;-71
2022/12/29 05:32:56;;;;;;;8.13;1.52;;;;;;;;;;5166033;27;20090;-71
2022/12/29 05:35:23;;;;;;;8.70;1.42;;;;;;;;;;5166151;27;20057;-71
2022/12/29 05:37:49;;;;;;;7.70;1.52;;;;;;;;;;5166620;27;20050;-72
2022/12/29 05:40:15;;;;;;;11.00;1.45;;;;;;;;;;5163597;27;20047;-71
2022/12/29 05:42:42;;;;;;;7.07;1.73;;;;;;;;;;5166001;27;20604;-72
2022/12/29 05:45:09;;;;;;;9.55;1.55;;;;;;;;;;5165900;27;20505;-71
2022/12/29 05:47:35;;;;;;;5.72;1.38;;;;;;;;;;5166057;27;20057;-72
2022/12/29 05:50:02;;;;;;;9.75;1.83;;;;;;;;;;5164879;27;20599;-72
2022/12/29 05:52:28;;;;;;;7.35;1.52;;;;;;;;;;5165559;27;20133;-71
2022/12/29 05:54:55;;;;;;;7.82;1.75;;;;;;;;;;5165178;27;20120;-73
2022/12/29 05:57:21;;;;;;;7.82;1.75;;;;;;;;;;5166516;27;20047;-70
2022/12/29 05:59:47;;;;;;;8.80;1.77;;;;;;;;;;5164777;27;20906;-73
2022/12/29 06:02:14;;;;;;;7.18;1.75;;;;;;;;;;5165447;27;20061;-73
2022/12/29 06:04:40;;;;;;;7.68;1.77;;;;;;;;;;5158924;27;20577;-73
2022/12/29 06:07:07;;;;;;;5.97;1.67;;;;;;;;;;5160083;27;20513;-74
2022/12/29 06:09:33;;;;;;;11.02;1.52;;;;;;;;;;5166241;27;20051;-73
2022/12/29 06:11:59;;;;;;;3.22;1.52;;;;;;;;;;5165196;27;20043;-72
2022/12/29 06:14:26;;;;;;;7.00;1.77;;;;;;;;;;5164784;27;20492;-73
2022/12/29 06:16:52;;;;;;;9.32;1.60;;;;;;;;;;5164584;27;20508;-73
2022/12/29 06:19:18;;;;;;;6.95;1.63;;;;;;;;;;5162352;27;20051;-73
2022/12/29 06:21:45;;;;;;;7.75;1.67;;;;;;;;;;5161861;27;20100;-75
2022/12/29 06:24:11;;;;;;;8.30;1.95;;;;;;;;;;5165849;27;20538;-73
2022/12/29 06:26:38;;;;;;;10.45;2.03;;;;;;;;;;5164883;27;20825;-73
2022/12/29 06:29:04;;;;;;;11.38;1.27;;;;;;;;;;5165836;27;20119;-72
2022/12/29 06:31:31;;;;;;;7.65;1.30;;;;;;;;;;5163965;27;20098;-74
2022/12/29 06:33:57;;;;;;;9.55;2.35;;;;;;;;;;5165397;27;20111;-75
2022/12/29 06:36:28;;;;;;;7.40;2.35;;;;;;;;;;5164200;27;20142;-75
2022/12/29 06:38:55;;;;;;;5.80;1.45;;;;;;;;;;5164418;27;20049;-76
2022/12/29 06:41:21;;;;;;;8.65;1.50;;;;;;;;;;5150348;27;20107;-75
2022/12/29 06:43:57;;;;;;;7.35;1.58;;;;;;;;;;5166189;27;20141;-74
2022/12/29 06:46:23;;;;;;;7.18;1.40;;;;;;;;;;5162268;27;20286;-74
2022/12/29 06:48:50;;;;;;;13.25;1.98;;;;;;;;;;5145753;27;20122;-75
2022/12/29 06:51:16;;;;;;;10.57;1.83;;;;;;;;;;5165769;27;20823;-72
2022/12/29 06:53:42;;;;;;;10.57;1.80;;;;;;;;;;5162777;27;20043;-73
2022/12/29 06:56:09;;;;;;;15.98;2.72;;;;;;;;;;5165285;27;20058;-72
2022/12/29 06:58:35;;;;;;;11.07;2.60;;;;;;;;;;5160884;27;20046;-72
2022/12/29 07:01:01;;;;;;;11.07;1.42;;;;;;;;;;5156557;27;20099;-72
2022/12/29 07:03:28;;;;;;;13.25;2.45;;;;;;;;;;5161730;27;20074;-72
2022/12/29 07:05:54;;;;;;;10.15;1.88;;;;;;;;;;5163273;27;20558;-73
2022/12/29 07:08:21;;;;;;;10.85;2.38;;;;;;;;;;5163082;27;20051;-73
2022/12/29 07:10:47;;;;;;;8.27;1.60;;;;;;;;;;5146830;27;20092;-73
2022/12/29 07:13:13;;;;;;;13.50;2.20;;;;;;;;;;5164385;27;20066;-70
2022/12/29 07:15:40;;;;;;;9.63;1.83;;;;;;;;;;5160646;27;20054;-75
2022/12/29 07:18:06;;;;;;;11.70;1.58;;;;;;;;;;5162894;27;20054;-72
2022/12/29 07:20:32;;;;;;;9.18;1.80;;;;;;;;;;5165138;27;20050;-71
2022/12/29 07:22:59;;;;;;;6.97;1.73;;;;;;;;;;5162711;27;20592;-72
2022/12/29 07:25:25;;;;;;;8.88;1.40;;;;;;;;;;5162613;27;20046;-72
2022/12/29 07:27:52;;;;;;;7.95;1.55;;;;;;;;;;5164322;27;20054;-73
2022/12/29 07:30:18;;;;;;;6.68;1.20;;;;;;;;;;5162250;27;20050;-73
2022/12/29 07:32:44;;;;;;;5.78;1.38;;;;;;;;;;5162930;27;20043;-72
2022/12/29 07:35:11;;;;;;;7.22;1.50;;;;;;;;;;5156449;27;20073;-69
2022/12/29 07:37:37;;;;;;;5.45;1.20;;;;;;;;;;5164191;27;20059;-72
2022/12/29 07:40:03;;;;;;;6.22;1.42;;;;;;;;;;5164337;27;20497;-70
2022/12/29 07:42:30;;;;;;;5.03;1.20;;;;;;;;;;5161372;27;20051;-72
2022/12/29 07:44:57;;;;;;;6.20;1.50;;;;;;;;;;5161666;27;20047;-72
2022/12/29 07:47:23;;;;;;;9.20;1.75;;;;;;;;;;5162169;27;20235;-73
2022/12/29 07:49:50;;;;;;;6.32;1.15;;;;;;;;;;5164240;27;20046;-71
2022/12/29 07:52:16;;;;;;;6.13;1.85;;;;;;;;;;5146400;27;20547;-71
2022/12/29 07:54:42;;;;;;;13.27;1.83;;;;;;;;;;5147149;27;20079;-72
2022/12/29 07:57:09;;;;;;;8.60;2.10;;;;;;;;;;5147467;27;20047;-71
2022/12/29 07:59:35;;;;;;;6.03;1.65;;;;;;;;;;5148263;27;20054;-71
2022/12/29 08:02:02;;;;;;;9.20;2.25;;;;;;;;;;5167673;27;20054;-72
2022/12/29 08:04:29;;;;;;;6.47;1.80;;;;;;;;;;5166634;27;20050;-72
2022/12/29 08:06:55;;;;;;;11.52;2.35;;;;;;;;;;5150821;27;20515;-72
2022/12/29 08:09:22;;;;;;;18.15;1.98;;;;;;;;;;5166594;27;20146;-72
2022/12/29 08:11:49;;;;;;;6.32;1.63;;;;;;;;;;5165824;27;20076;-71
2022/12/29 08:14:16;;;;;;;6.38;1.80;;;;;;;;;;5148761;27;20047;-70
2022/12/29 08:16:42;;;;;;;14.05;2.55;;;;;;;;;;5157478;27;20055;-72
2022/12/29 08:19:10;;;;;;;9.10;1.92;;;;;;;;;;5146001;27;20061;-70
2022/12/29 08:21:36;;;;;;;4.38;1.13;;;;;;;;;;5150897;27;20057;-72
2022/12/29 08:24:02;;;;;;;5.57;1.30;;;;;;;;;;5165682;27;20549;-71
2022/12/29 08:26:29;;;;;;;7.93;2.20;;;;;;;;;;5153213;27;20039;-73
2022/12/29 08:28:56;;;;;;;11.38;2.10;;;;;;;;;;5152334;27;20150;-70
2022/12/29 08:31:23;;;;;;;9.45;1.65;;;;;;;;;;5166103;27;20047;-70
2022/12/29 08:33:50;;;;;;;8.32;1.73;;;;;;;;;;5164928;27;20417;-70
2022/12/29 08:36:16;;;;;;;8.95;1.58;;;;;;;;;;5167257;27;20082;-71
2022/12/29 08:38:43;;;;;;;7.95;2.53;;;;;;;;;;5165758;27;20038;-71
2022/12/29 08:41:10;;;;;;;14.00;3.78;;;;;;;;;;5166848;27;20133;-70
2022/12/29 08:43:36;;;;;;;9.13;1.90;;;;;;;;;;5162106;27;20088;-71
2022/12/29 08:46:02;;;;;;;8.45;3.08;;;;;;;;;;5164296;27;20055;-71
2022/12/29 08:48:29;;;;;;;8.32;1.48;;;;;;;;;;5155554;27;20043;-70
2022/12/29 08:50:55;;;;;;;11.02;1.75;;;;;;;;;;5164491;27;20121;-71
2022/12/29 08:53:22;;;;;;;12.45;1.55;;;;;;;;;;5164138;27;20491;-70
2022/12/29 08:55:54;;;;;;;7.35;1.85;;;;;;;;;;5157233;27;20049;-71
2022/12/29 08:58:29;;;;;;;7.60;2.00;;;;;;;;;;5146354;27;20043;-70
2022/12/29 09:00:56;;;;;;;13.68;2.13;;;;;;;;;;5155196;27;20142;-70
2022/12/29 09:03:23;;;;;;;9.95;1.85;;;;;;;;;;5165248;27;20137;-71
2022/12/29 09:06:09;;;;;;;12.15;2.55;;;;;;;;;;5165606;27;20058;-73
2022/12/29 09:08:36;;;;;;;13.88;1.90;;;;;;;;;;5166877;27;20054;-71
2022/12/29 09:11:07;;;;;;;10.65;1.90;;;;;;;;;;5161836;27;20074;-71
2022/12/29 09:13:34;;;;;;;7.75;1.63;;;;;;;;;;5158598;27;20070;-71
2022/12/29 09:16:01;;;;;;;10.23;2.67;;;;;;;;;;5156678;27;20279;-71
2022/12/29 09:18:27;;;;;;;7.85;1.48;;;;;;;;;;5166049;27;20134;-71
2022/12/29 09:20:57;;;;;;;8.27;2.00;;;;;;;;;;5161261;27;20058;-71
2022/12/29 09:23:24;;;;;;;8.95;1.70;;;;;;;;;;5162715;27;20046;-74
2022/12/29 09:25:51;;;;;;;6.18;1.70;;;;;;;;;;5162003;27;20047;-74
2022/12/29 09:28:17;;;;;;;8.38;2.15;;;;;;;;;;5155499;27;20047;-71
2022/12/29 09:30:44;;;;;;;15.40;2.38;;;;;;;;;;5163586;27;20054;-72
2022/12/29 09:33:10;;;;;;;10.02;1.88;;;;;;;;;;5165371;27;20500;-72
2022/12/29 09:35:37;;;;;;;9.50;1.85;;;;;;;;;;5166269;27;20752;-71
2022/12/29 09:38:03;;;;;;;10.60;2.10;;;;;;;;;;5163515;27;20541;-71
2022/12/29 09:40:31;;;;;;;9.68;2.30;;;;;;;;;;5149026;27;20059;-72
2022/12/29 09:43:00;;;;;;;8.90;2.00;;;;;;;;;;5165164;27;20137;-72
2022/12/29 09:45:33;;;;;;;5.72;1.65;;;;;;;;;;5164210;27;20050;-73
2022/12/29 09:48:00;;;;;;;13.35;1.73;;;;;;;;;;5159960;27;20050;-74
2022/12/29 09:50:35;;;;;;;8.40;1.88;;;;;;;;;;5165368;27;20084;-73
2022/12/29 09:53:13;;;;;;;7.90;1.80;;;;;;;;;;5165842;27;20519;-73
2022/12/29 09:55:46;;;;;;;7.05;1.75;;;;;;;;;;5155542;27;20054;-72
2022/12/29 09:58:18;;;;;;;7.60;1.98;;;;;;;;;;5155962;27;20053;-73
2022/12/29 10:00:49;;;;;;;8.15;2.00;;;;;;;;;;5164068;27;20057;-70
2022/12/29 10:03:22;;;;;;;9.25;2.33;;;;;;;;;;5162542;27;20509;-74
2022/12/29 10:06:13;;;;;;;10.55;2.03;;;;;;;;;;5159868;27;20074;-70
2022/12/29 10:08:40;;;;;;;6.13;1.98;;;;;;;;;;5156558;27;20509;-73
2022/12/29 10:11:18;;;;;;;6.13;2.58;;;;;;;;;;5153969;27;20053;-71
2022/12/29 10:13:54;;;;;;;4.72;1.83;;;;;;;;;;5154011;27;20059;-73
2022/12/29 10:16:20;;;;;;;;;;;;;;;;;;5164542;27;20082;-70
2022/12/29 10:18:46;;;;;;;7.63;2.00;;;;;;;;;;5156164;27;45877;-72
2022/12/29 10:21:22;;;;;;;8.10;2.03;;;;;;;;;;5142302;27;20050;-70
2022/12/29 10:23:52;;;;;;;13.38;2.95;;;;;;;;;;5141717;27;20055;-72
2022/12/29 10:26:21;;;;;;;6.53;2.65;;;;;;;;;;5143224;27;20505;-71
2022/12/29 10:28:54;;;;;;;8.77;2.42;;;;;;;;;;5142332;27;20195;-71
2022/12/29 10:31:25;;;;;;;9.82;1.90;;;;;;;;;;5144082;27;20051;-74
2022/12/29 10:33:56;;;;;;;5.15;1.80;;;;;;;;;;5144084;27;20051;-71
2022/12/29 10:36:38;;;;;;;10.30;2.42;;;;;;;;;;5136067;27;20517;-71
2022/12/29 10:39:20;;;;;;;7.80;1.75;;;;;;;;;;5129093;27;20056;-74
2022/12/29 10:41:49;;;;;;;6.40;2.00;;;;;;;;;;5134576;27;20079;-72
2022/12/29 10:44:17;;;;;;;7.55;1.80;;;;;;;;;;5143107;27;20055;-74
2022/12/29 10:46:46;;;;;;;7.65;1.70;;;;;;;;;;5141198;27;20135;-71
2022/12/29 10:49:16;;;;;;;4.57;1.60;;;;;;;;;;5139206;27;20104;-73
2022/12/29 10:51:48;;;;;;;10.77;1.93;;;;;;;;;;5131823;27;20501;-73
2022/12/29 10:54:26;;;;;;;10.90;2.63;;;;;;;;;;5142210;27;20265;-72
2022/12/29 10:57:05;;;;;;;10.80;2.10;;;;;;;;;;5142077;27;20492;-75
2022/12/29 10:59:32;;;;;;;13.25;3.05;;;;;;;;;;5143430;27;20047;-71
2022/12/29 11:02:11;;;;;;;12.35;2.67;;;;;;;;;;5133649;27;20485;-75
2022/12/29 11:04:56;;;;;;;11.60;2.55;;;;;;;;;;5143661;27;20086;-73
2022/12/29 11:07:23;;;;;;;10.38;2.22;;;;;;;;;;5141292;27;20047;-76
2022/12/29 11:09:53;;;;;;;10.57;2.08;;;;;;;;;;5141124;27;20501;-74
2022/12/29 11:12:20;;;;;;;15.02;3.40;;;;;;;;;;5131439;27;20052;-73
2022/12/29 11:14:46;;;;;;;9.07;2.17;;;;;;;;;;5140071;27;20539;-73
2022/12/29 11:17:17;;;;;;;11.85;3.05;;;;;;;;;;5133938;27;20051;-70
2022/12/29 11:19:43;;;;;;;17.20;3.30;;;;;;;;;;5155505;27;20047;-71
2022/12/29 11:22:12;;;;;;;9.52;2.08;;;;;;;;;;5167305;27;20046;-70
2022/12/29 11:24:45;;;;;;;15.10;4.43;;;;;;;;;;5165729;27;20852;-72
2022/12/29 11:27:22;;;;;;;16.70;3.03;;;;;;;;;;5153995;27;20575;-73
2022/12/29 11:29:49;;;;;;;11.43;2.55;;;;;;;;;;5166454;27;20053;-72
2022/12/29 11:32:26;;;;;;;19.75;3.30;;;;;;;;;;5148035;27;20050;-72
2022/12/29 11:34:55;;;;;;;10.88;3.45;;;;;;;;;;5166040;27;20504;-72
2022/12/29 11:37:27;;;;;;;18.25;4.13;;;;;;;;;;5156292;27;20103;-73
2022/12/29 11:39:59;;;;;;;14.18;3.30;;;;;;;;;;5163293;27;20092;-72
2022/12/29 11:42:39;;;;;;;21.38;4.38;;;;;;;;;;5165751;27;20078;-72
2022/12/29 11:45:13;;;;;;;17.90;4.03;;;;;;;;;;5166018;27;20107;-70
2022/12/29 11:47:42;;;;;;;11.93;2.45;;;;;;;;;;5162181;27;20491;-73
2022/12/29 11:50:16;;;;;;;14.40;2.72;;;;;;;;;;5162701;27;20047;-72
2022/12/29 11:52:43;;;;;;;17.10;3.28;;;;;;;;;;5157642;27;20586;-73
2022/12/29 11:55:17;;;;;;;19.67;4.05;;;;;;;;;;5147875;27;20047;-72
2022/12/29 11:57:44;;;;;;;12.15;3.80;;;;;;;;;;5132313;27;20055;-69
2022/12/29 12:00:15;;;;;;;12.48;3.05;;;;;;;;;;5147946;27;20054;-73
2022/12/29 12:02:41;;;;;;;12.75;2.40;;;;;;;;;;5167165;27;20057;-72
2022/12/29 12:05:09;;;;;;;12.57;4.03;;;;;;;;;;5166789;27;20054;-74
2022/12/29 12:07:39;;;;;;;18.75;3.60;;;;;;;;;;5158156;27;20565;-71
2022/12/29 12:10:07;;;;;;;15.75;4.90;;;;;;;;;;5146789;27;20598;-72
2022/12/29 12:12:47;;;;;;;11.27;2.78;;;;;;;;;;5164859;27;20506;-71
2022/12/29 12:15:17;;;;;;;22.55;4.00;;;;;;;;;;5168252;27;20054;-72
2022/12/29 12:17:50;;;;;;;18.98;4.15;;;;;;;;;;5149017;27;20498;-70
2022/12/29 12:20:19;;;;;;;14.40;3.47;;;;;;;;;;5166806;27;20304;-72
2022/12/29 12:22:50;;;;;;;10.30;2.75;;;;;;;;;;5157293;27;20058;-71
2022/12/29 12:25:17;;;;;;;25.60;4.50;;;;;;;;;;5164855;27;20084;-75
2022/12/29 12:28:01;;;;;;;16.27;3.30;;;;;;;;;;5166815;27;20827;-72
2022/12/29 12:30:31;;;;;;;12.95;3.50;;;;;;;;;;5164273;27;20050;-72
2022/12/29 12:33:17;;;;;;;13.90;3.70;;;;;;;;;;5147302;27;20050;-74
2022/12/29 12:36:02;;;;;;;9.85;3.17;;;;;;;;;;5161767;27;20642;-70
2022/12/29 12:38:44;;;;;;;15.33;3.50;;;;;;;;;;5144798;27;20050;-72
2022/12/29 12:41:11;;;;;;;21.38;4.78;;;;;;;;;;5146556;27;20744;-72
2022/12/29 12:43:56;;;;;;;14.88;3.55;;;;;;;;;;5162382;27;20571;-72
2022/12/29 12:46:25;;;;;;;17.13;3.42;;;;;;;;;;5155122;27;20047;-78
2022/12/29 12:48:51;;;;;;;23.63;8.05;;;;;;;;;;5160635;27;20047;-71
2022/12/29 12:51:30;;;;;;;19.52;7.53;;;;;;;;;;5167321;27;20519;-79
2022/12/29 12:54:01;;;;;;;18.08;4.75;;;;;;;;;;5146672;27;20051;-72
2022/12/29 12:56:46;;;;;;;29.17;10.30;;;;;;;;;;5136578;27;20043;-75
2022/12/29 12:59:24;;;;;;;12.03;3.30;;;;;;;;;;5164398;27;20900;-76
2022/12/29 13:01:59;;;;;;;14.75;3.97;;;;;;;;;;5156002;27;20044;-74
2022/12/29 13:04:51;;;;;;;17.17;4.13;;;;;;;;;;5152922;27;20051;-73
2022/12/29 13:07:18;;;;;;;14.38;3.33;;;;;;;;;;5120962;27;20806;-73
2022/12/29 13:10:04;;;;;;;15.55;4.35;;;;;;;;;;5160637;27;20051;-75
2022/12/29 13:12:41;;;;;;;15.10;3.00;;;;;;;;;;5111230;27;20062;-73
2022/12/29 13:15:07;;;;;;;11.48;2.95;;;;;;;;;;5163761;27;20459;-77
2022/12/29 13:17:48;;;;;;;13.52;1.95;;;;;;;;;;5160739;27;20807;-75
2022/12/29 13:20:15;;;;;;;13.38;2.78;;;;;;;;;;5165574;27;20142;-72
2022/12/29 13:22:47;;;;;;;18.20;3.25;;;;;;;;;;5163072;27;20171;-72
2022/12/29 13:25:20;;;;;;;17.63;3.65;;;;;;;;;;5165116;27;20055;-70
2022/12/29 13:28:00;;;;;;;13.95;2.97;;;;;;;;;;5139257;27;20581;-74
2022/12/29 13:30:34;;;;;;;19.55;3.85;;;;;;;;;;5146748;27;20831;-70
2022/12/29 13:33:19;;;;;;;12.38;2.72;;;;;;;;;;5163097;27;20594;-75
2022/12/29 13:35:49;;;;;;;12.77;2.45;;;;;;;;;;5155209;27;20048;-72
2022/12/29 13:38:22;;;;;;;15.95;2.10;;;;;;;;;;5164491;27;20517;-75
2022/12/29 13:40:56;;;;;;;14.07;2.63;;;;;;;;;;5156604;27;20556;-76
2022/12/29 13:43:23;;;;;;;10.38;2.65;;;;;;;;;;5160324;27;20050;-76
2022/12/29 13:45:55;;;;;;;16.95;2.95;;;;;;;;;;5166607;27;20439;-77
2022/12/29 13:48:24;;;;;;;9.32;2.17;;;;;;;;;;5156800;27;20039;-76
2022/12/29 13:50:54;;;;;;;12.10;2.63;;;;;;;;;;5165019;27;20523;-74
2022/12/29 13:53:30;;;;;;;8.50;2.08;;;;;;;;;;5150214;27;20553;-72
2022/12/29 13:55:57;;;;;;;15.10;3.55;;;;;;;;;;5163550;27;20585;-75
2022/12/29 13:58:32;;;;;;;13.05;2.70;;;;;;;;;;5163166;27;20133;-75
2022/12/29 14:01:07;;;;;;;12.77;2.67;;;;;;;;;;5162227;27;20074;-75
2022/12/29 14:03:49;;;;;;;10.20;3.33;;;;;;;;;;5145445;27;20047;-76
2022/12/29 14:06:19;;;;;;;14.23;3.33;;;;;;;;;;5146994;27;20055;-72
2022/12/29 14:08:46;;;;;;;11.35;2.80;;;;;;;;;;5166169;27;20058;-72
2022/12/29 14:11:15;;;;;;;15.15;3.38;;;;;;;;;;5163626;27;20046;-74
2022/12/29 14:13:43;;;;;;;10.15;2.40;;;;;;;;;;5162878;27;20046;-71
2022/12/29 14:16:29;;;;;;;21.95;3.60;;;;;;;;;;5165333;27;20599;-74
2022/12/29 14:18:57;;;;;;;13.68;2.63;;;;;;;;;;5164404;27;20146;-74
2022/12/29 14:21:28;;;;;;;12.77;3.17;;;;;;;;;;5153009;27;20046;-77
2022/12/29 14:24:00;;;;;;;7.05;2.25;;;;;;;;;;5156557;27;20062;-77
2022/12/29 14:26:30;;;;;;;7.43;1.98;;;;;;;;;;5128481;27;20050;-74
2022/12/29 14:28:56;;;;;;;7.93;2.15;;;;;;;;;;5161379;27;20039;-71
2022/12/29 14:31:30;;;;;;;5.18;1.70;;;;;;;;;;5162005;27;20046;-74
2022/12/29 14:34:05;;;;;;;11.48;1.77;;;;;;;;;;5159718;27;20611;-70
2022/12/29 14:36:31;;;;;;;;;;;;;;;;;;5163783;27;20107;-74
2022/12/29 14:38:58;;;;;;;7.10;2.38;;;;;;;;;;5157601;27;43590;-73
2022/12/29 14:41:27;;;;;;;6.53;1.42;;;;;;;;;;5156999;27;20512;-71
2022/12/29 14:43:55;;;;;;;2.30;1.30;;;;;;;;;;5152985;27;20393;-73
2022/12/29 14:46:22;;;;;;;5.38;1.23;;;;;;;;;;5151033;27;20123;-72
2022/12/29 14:48:54;;;;;;;3.47;1.23;;;;;;;;;;5156815;27;20130;-73
2022/12/29 14:51:35;;;;;;;3.45;1.10;;;;;;;;;;5156638;27;20424;-73
2022/12/29 14:54:21;;;;;;;2.10;1.13;;;;;;;;;;5158058;27;20137;-73
2022/12/29 14:56:48;;;;;;;7.47;1.58;;;;;;;;;;5154782;27;20714;-73
2022/12/29 14:59:14;;;;;;;5.05;1.40;;;;;;;;;;5160007;27;20591;-73
2022/12/29 15:01:49;;;;;;;6.95;2.17;;;;;;;;;;5156156;27;20055;-70
2022/12/29 15:04:21;;;;;;;5.05;1.58;;;;;;;;;;5150421;27;20047;-71
2022/12/29 15:06:49;;;;;;;5.65;1.40;;;;;;;;;;5140609;27;20134;-74
2022/12/29 15:09:24;;;;;;;7.32;1.95;;;;;;;;;;5160001;27;20637;-72
2022/12/29 15:11:53;;;;;;;3.65;1.52;;;;;;;;;;5163534;27;20051;-73
2022/12/29 15:14:27;;;;;;;10.57;2.15;;;;;;;;;;5163887;27;20099;-74
2022/12/29 15:16:54;;;;;;;7.45;2.30;;;;;;;;;;5152550;27;20517;-74
2022/12/29 15:19:21;;;;;;;5.50;1.50;;;;;;;;;;5159183;27;20077;-74
2022/12/29 15:21:48;;;;;;;5.43;1.70;;;;;;;;;;5164494;27;20046;-75
2022/12/29 15:24:14;;;;;;;7.00;1.95;;;;;;;;;;5167469;27;20043;-70
2022/12/29 15:26:42;;;;;;;7.63;2.03;;;;;;;;;;5166903;27;20948;-69
2022/12/29 15:29:28;;;;;;;6.28;1.48;;;;;;;;;;5145405;27;20564;-75